createdAt,value
2019-02-24T00:00:20.709Z,67.33
2019-02-24T00:01:20.698Z,67.95
2019-02-24T00:02:20.690Z,67.12
2019-02-24T00:03:20.673Z,67.43
2019-02-24T00:04:20.692Z,68.58
2019-02-24T00:05:20.666Z,68.27
2019-02-24T00:06:20.649Z,67.64
2019-02-24T00:07:20.629Z,67.95
2019-02-24T00:08:20.658Z,68.17
2019-02-24T00:09:20.612Z,67.33
2019-02-24T00:10:20.595Z,67.43
2019-02-24T00:11:20.592Z,68.06
2019-02-24T00:12:20.585Z,68.06
2019-02-24T00:13:20.584Z,68.02
2019-02-24T00:14:20.562Z,67.51
2019-02-24T00:15:20.546Z,68.02
2019-02-24T00:16:20.537Z,67.82
2019-02-24T00:17:20.540Z,67.82
2019-02-24T00:18:20.511Z,67.95
2019-02-24T00:19:20.503Z,68.17
2019-02-24T00:20:20.522Z,67.85
2019-02-24T00:21:20.484Z,67.95
2019-02-24T00:22:20.469Z,67.33
2019-02-24T00:23:20.460Z,68.06
2019-02-24T00:24:20.455Z,68.37
2019-02-24T00:25:20.447Z,67.61
2019-02-24T00:26:20.426Z,68.02
2019-02-24T00:27:20.421Z,67.61
2019-02-24T00:28:20.430Z,67.51
2019-02-24T00:29:20.444Z,67.51
2019-02-24T00:30:20.387Z,67.30
2019-02-24T00:31:20.377Z,66.68
2019-02-24T00:32:20.436Z,68.02
2019-02-24T00:33:20.354Z,68.02
2019-02-24T00:34:20.341Z,67.82
2019-02-24T00:35:20.333Z,67.82
2019-02-24T00:36:20.335Z,68.55
2019-02-24T00:37:20.315Z,67.92
2019-02-24T00:38:20.875Z,67.92
2019-02-24T00:39:20.292Z,67.92
2019-02-24T00:40:20.343Z,66.99
2019-02-24T00:41:20.270Z,67.19
2019-02-24T00:42:20.260Z,66.15
2019-02-24T00:43:20.243Z,65.42
2019-02-24T00:44:20.241Z,66.02
2019-02-24T00:45:20.231Z,65.50
2019-02-24T00:46:20.225Z,65.63
2019-02-24T00:47:20.206Z,65.19
2019-02-24T00:48:20.204Z,64.77
2019-02-24T00:49:20.178Z,65.39
2019-02-24T00:50:20.237Z,64.87
2019-02-24T00:51:20.163Z,64.63
2019-02-24T00:52:20.151Z,64.32
2019-02-24T00:53:20.134Z,64.84
2019-02-24T00:54:20.132Z,64.53
2019-02-24T00:55:20.127Z,64.53
2019-02-24T00:56:20.118Z,64.63
2019-02-24T00:57:20.130Z,63.49
2019-02-24T00:58:20.090Z,64.01
2019-02-24T00:59:20.067Z,63.80
2019-02-24T01:00:20.071Z,64.22
2019-02-24T01:01:20.057Z,64.32
2019-02-24T01:02:20.045Z,64.95
2019-02-24T01:03:20.032Z,64.42
2019-02-24T01:04:20.021Z,64.42
2019-02-24T01:05:20.004Z,65.26
2019-02-24T01:06:20.006Z,65.26
2019-02-24T01:07:19.980Z,66.09
2019-02-24T01:08:19.972Z,64.84
2019-02-24T01:09:19.976Z,66.09
2019-02-24T01:10:19.950Z,65.47
2019-02-24T01:11:19.953Z,65.05
2019-02-24T01:12:19.946Z,65.36
2019-02-24T01:13:19.926Z,65.88
2019-02-24T01:14:19.905Z,65.26
2019-02-24T01:15:19.907Z,64.74
2019-02-24T01:16:19.894Z,65.36
2019-02-24T01:17:19.932Z,64.50
2019-02-24T01:18:19.865Z,65.96
2019-02-24T01:19:19.853Z,64.92
2019-02-24T01:20:19.851Z,64.84
2019-02-24T01:21:19.833Z,65.96
2019-02-24T01:22:19.832Z,65.96
2019-02-24T01:23:19.819Z,65.85
2019-02-24T01:24:19.806Z,64.92
2019-02-24T01:25:19.793Z,64.92
2019-02-24T01:26:19.773Z,65.44
2019-02-24T01:27:19.777Z,64.61
2019-02-24T01:28:25.206Z,65.23
2019-02-24T01:29:19.745Z,65.54
2019-02-24T01:30:19.733Z,65.96
2019-02-24T01:31:19.732Z,64.61
2019-02-24T01:32:19.716Z,65.85
2019-02-24T01:33:19.700Z,64.68
2019-02-24T01:34:19.731Z,65.96
2019-02-24T01:35:19.673Z,64.92
2019-02-24T01:36:19.689Z,64.71
2019-02-24T01:37:19.657Z,64.71
2019-02-24T01:38:19.647Z,64.61
2019-02-24T01:39:19.633Z,65.13
2019-02-24T01:40:19.640Z,64.29
2019-02-24T01:41:19.616Z,64.81
2019-02-24T01:42:19.618Z,63.25
2019-02-24T01:43:19.608Z,63.90
2019-02-24T01:44:19.582Z,64.29
2019-02-24T01:45:19.570Z,64.63
2019-02-24T01:46:19.561Z,64.19
2019-02-24T01:47:19.569Z,63.46
2019-02-24T01:48:21.126Z,63.15
2019-02-24T01:49:19.608Z,62.21
2019-02-24T01:50:19.566Z,63.15
2019-02-24T01:51:19.507Z,63.15
2019-02-24T01:52:19.497Z,62.94
2019-02-24T01:53:19.569Z,63.98
2019-02-24T01:54:19.482Z,63.98
2019-02-24T01:55:19.462Z,63.25
2019-02-24T01:56:19.459Z,62.00
2019-02-24T01:57:19.453Z,62.10
2019-02-24T01:58:19.429Z,60.96
2019-02-24T01:59:19.433Z,61.17
2019-02-24T02:00:19.410Z,61.07
2019-02-24T02:01:19.413Z,62.21
2019-02-24T02:02:19.385Z,61.48
2019-02-24T02:03:19.433Z,60.96
2019-02-24T02:04:19.381Z,60.96
2019-02-24T02:05:19.349Z,62.42
2019-02-24T02:06:19.341Z,62.84
2019-02-24T02:07:19.337Z,61.35
2019-02-24T02:08:19.348Z,60.72
2019-02-24T02:09:19.313Z,60.93
2019-02-24T02:10:19.305Z,60.10
2019-02-24T02:11:19.298Z,60.55
2019-02-24T02:12:19.295Z,60.65
2019-02-24T02:13:19.269Z,60.65
2019-02-24T02:14:19.254Z,60.44
2019-02-24T02:15:19.242Z,61.07
2019-02-24T02:16:19.236Z,61.17
2019-02-24T02:17:19.227Z,60.76
2019-02-24T02:18:19.217Z,61.59
2019-02-24T02:19:19.214Z,61.38
2019-02-24T02:20:19.198Z,60.65
2019-02-24T02:21:19.184Z,60.65
2019-02-24T02:22:19.187Z,60.99
2019-02-24T02:23:19.168Z,61.38
2019-02-24T02:24:19.179Z,61.59
2019-02-24T02:25:19.148Z,60.86
2019-02-24T02:26:19.127Z,60.47
2019-02-24T02:27:19.125Z,59.69
2019-02-24T02:28:19.110Z,60.44
2019-02-24T02:29:19.090Z,60.86
2019-02-24T02:30:19.099Z,60.21
2019-02-24T02:31:19.072Z,59.50
2019-02-24T02:32:19.063Z,59.40
2019-02-24T02:33:19.061Z,60.31
2019-02-24T02:34:19.074Z,59.17
2019-02-24T02:35:19.030Z,58.86
2019-02-24T02:36:19.017Z,59.50
2019-02-24T02:37:19.023Z,60.00
2019-02-24T02:38:19.001Z,59.79
2019-02-24T02:39:19.022Z,59.19
2019-02-24T02:40:18.991Z,59.48
2019-02-24T02:41:18.978Z,59.38
2019-02-24T02:42:18.955Z,59.27
2019-02-24T02:43:18.944Z,59.93
2019-02-24T02:44:18.956Z,60.13
2019-02-24T02:45:18.923Z,60.13
2019-02-24T02:46:18.916Z,59.40
2019-02-24T02:47:18.924Z,58.99
2019-02-24T02:48:18.890Z,59.06
2019-02-24T02:49:18.923Z,59.71
2019-02-24T02:50:18.878Z,59.71
2019-02-24T02:51:18.866Z,58.99
2019-02-24T02:52:18.860Z,60.00
2019-02-24T02:53:18.839Z,59.82
2019-02-24T02:54:18.840Z,61.38
2019-02-24T02:55:18.820Z,59.27
2019-02-24T02:56:18.800Z,61.17
2019-02-24T02:57:18.816Z,61.69
2019-02-24T02:58:18.786Z,58.88
2019-02-24T02:59:18.769Z,60.65
2019-02-24T03:00:18.759Z,62.00
2019-02-24T03:01:18.750Z,60.96
2019-02-24T03:02:24.318Z,60.34
2019-02-24T03:03:43.665Z,59.09
2019-02-24T03:04:43.654Z,60.55
2019-02-24T03:05:43.644Z,60.65
2019-02-24T03:06:43.639Z,61.14
2019-02-24T03:07:43.616Z,60.65
2019-02-24T03:08:43.610Z,62.13
2019-02-24T03:09:43.600Z,62.53
2019-02-24T03:10:43.612Z,60.96
2019-02-24T03:11:43.575Z,62.21
2019-02-24T03:12:43.564Z,58.99
2019-02-24T03:13:43.550Z,61.27
2019-02-24T03:14:43.563Z,62.42
2019-02-24T03:15:43.529Z,61.79
2019-02-24T03:16:43.522Z,62.45
2019-02-24T03:17:43.541Z,62.00
2019-02-24T03:18:43.520Z,62.84
2019-02-24T03:19:43.490Z,62.84
2019-02-24T03:20:43.475Z,63.15
2019-02-24T03:21:43.498Z,63.25
2019-02-24T03:22:43.455Z,62.45
2019-02-24T03:23:43.507Z,62.10
2019-02-24T03:24:43.432Z,62.63
2019-02-24T03:25:43.424Z,62.32
2019-02-24T03:26:43.502Z,63.04
2019-02-24T03:27:43.409Z,62.21
2019-02-24T03:28:43.383Z,62.76
2019-02-24T03:29:43.380Z,62.53
2019-02-24T03:30:43.383Z,62.94
2019-02-24T03:31:43.389Z,62.87
2019-02-24T03:32:43.355Z,61.17
2019-02-24T03:33:44.924Z,61.38
2019-02-24T03:34:43.336Z,61.62
2019-02-24T03:35:43.314Z,62.10
2019-02-24T03:36:43.309Z,62.73
2019-02-24T03:37:43.320Z,63.67
2019-02-24T03:38:43.293Z,63.98
2019-02-24T03:39:43.283Z,63.15
2019-02-24T03:40:43.300Z,61.38
2019-02-24T03:41:43.254Z,62.53
2019-02-24T03:42:43.234Z,62.00
2019-02-24T03:43:43.226Z,62.00
2019-02-24T03:44:43.217Z,61.59
2019-02-24T03:45:43.217Z,62.53
2019-02-24T03:46:43.195Z,62.03
2019-02-24T03:47:43.183Z,63.36
2019-02-24T03:48:43.171Z,62.84
2019-02-24T03:49:43.175Z,63.18
2019-02-24T03:50:43.190Z,62.32
2019-02-24T03:51:43.155Z,62.32
2019-02-24T03:52:43.126Z,62.94
2019-02-24T03:53:43.118Z,62.53
2019-02-24T03:54:43.105Z,62.24
2019-02-24T03:55:43.110Z,61.51
2019-02-24T03:56:43.088Z,60.55
2019-02-24T03:57:43.076Z,60.47
2019-02-24T03:58:43.119Z,61.07
2019-02-24T03:59:43.063Z,60.76
2019-02-24T04:00:43.046Z,60.13
2019-02-24T04:01:43.024Z,60.86
2019-02-24T04:02:43.050Z,62.42
2019-02-24T04:03:43.041Z,60.03
2019-02-24T04:04:43.010Z,59.09
2019-02-24T04:05:42.989Z,59.53
2019-02-24T04:06:42.982Z,58.44
2019-02-24T04:07:42.978Z,58.54
2019-02-24T04:08:42.971Z,58.78
2019-02-24T04:09:42.946Z,58.86
2019-02-24T04:10:42.940Z,58.02
2019-02-24T04:11:42.917Z,57.50
2019-02-24T04:12:42.923Z,57.29
2019-02-24T04:13:42.902Z,57.40
2019-02-24T04:14:42.923Z,57.09
2019-02-24T04:15:42.891Z,58.75
2019-02-24T04:16:42.872Z,58.86
2019-02-24T04:17:42.861Z,58.99
2019-02-24T04:18:42.849Z,59.09
2019-02-24T04:19:42.837Z,59.19
2019-02-24T04:20:42.813Z,59.02
2019-02-24T04:21:42.834Z,59.12
2019-02-24T04:22:42.810Z,58.08
2019-02-24T04:23:42.785Z,59.19
2019-02-24T04:24:42.774Z,60.65
2019-02-24T04:25:42.765Z,59.43
2019-02-24T04:26:42.776Z,59.12
2019-02-24T04:27:42.740Z,59.61
2019-02-24T04:28:42.739Z,58.36
2019-02-24T04:29:42.721Z,59.02
2019-02-24T04:30:42.727Z,58.49
2019-02-24T04:31:42.699Z,59.02
2019-02-24T04:32:42.774Z,57.74
2019-02-24T04:33:42.676Z,58.88
2019-02-24T04:34:42.665Z,57.84
2019-02-24T04:35:42.654Z,60.24
2019-02-24T04:36:42.649Z,60.65
2019-02-24T04:37:42.639Z,57.74
2019-02-24T04:38:42.626Z,58.47
2019-02-24T04:39:42.611Z,56.78
2019-02-24T04:40:42.603Z,59.06
2019-02-24T04:41:42.593Z,60.03
2019-02-24T04:42:42.588Z,59.19
2019-02-24T04:43:42.566Z,57.32
2019-02-24T04:44:42.566Z,57.63
2019-02-24T04:45:42.545Z,58.78
2019-02-24T04:46:42.544Z,59.38
2019-02-24T04:47:42.529Z,61.48
2019-02-24T04:48:42.523Z,60.76
2019-02-24T04:49:42.577Z,60.44
2019-02-24T04:50:42.512Z,60.24
2019-02-24T04:51:42.485Z,57.14
2019-02-24T04:52:42.470Z,58.26
2019-02-24T04:53:42.463Z,60.03
2019-02-24T04:54:42.478Z,58.05
2019-02-24T04:55:42.450Z,55.56
2019-02-24T04:56:42.425Z,57.11
2019-02-24T04:57:42.469Z,56.05
2019-02-24T04:58:42.432Z,56.36
2019-02-24T04:59:42.392Z,57.61
2019-02-24T05:00:42.436Z,59.17
2019-02-24T05:01:42.373Z,58.67
2019-02-24T05:02:42.362Z,58.88
2019-02-24T05:03:42.347Z,60.57
2019-02-24T05:04:42.335Z,59.19
2019-02-24T05:05:42.328Z,59.19
2019-02-24T05:06:42.431Z,56.90
2019-02-24T05:07:42.302Z,58.26
2019-02-24T05:08:42.298Z,60.44
2019-02-24T05:09:42.280Z,55.32
2019-02-24T05:10:42.271Z,55.42
2019-02-24T05:11:42.268Z,55.95
2019-02-24T05:12:42.265Z,55.32
2019-02-24T05:13:42.334Z,55.52
2019-02-24T05:14:42.232Z,58.23
2019-02-24T05:15:42.238Z,56.46
2019-02-24T05:16:42.207Z,55.95
2019-02-24T05:17:42.212Z,55.63
2019-02-24T05:18:42.197Z,59.48
2019-02-24T05:19:42.183Z,59.06
2019-02-24T05:20:42.168Z,58.36
2019-02-24T05:21:42.148Z,57.53
2019-02-24T05:22:42.146Z,57.01
2019-02-24T05:23:43.076Z,57.84
2019-02-24T05:24:42.145Z,55.97
2019-02-24T05:25:42.113Z,56.39
2019-02-24T05:26:42.124Z,56.59
2019-02-24T05:27:42.087Z,57.42
2019-02-24T05:28:42.122Z,57.87
2019-02-24T05:29:45.730Z,58.05
2019-02-24T05:30:42.101Z,57.66
2019-02-24T05:31:42.052Z,56.51
2019-02-24T05:32:42.029Z,57.25
2019-02-24T05:33:42.017Z,57.56
2019-02-24T05:34:42.037Z,58.00
2019-02-24T05:35:41.999Z,57.06
2019-02-24T05:36:41.988Z,57.17
2019-02-24T05:37:41.977Z,57.27
2019-02-24T05:38:41.968Z,57.06
2019-02-24T05:39:41.969Z,56.75
2019-02-24T05:40:41.948Z,56.02
2019-02-24T05:41:41.943Z,56.67
2019-02-24T05:42:42.609Z,56.96
2019-02-24T05:43:41.915Z,57.06
2019-02-24T05:44:41.907Z,56.33
2019-02-24T05:45:41.888Z,56.43
2019-02-24T05:46:41.886Z,56.62
2019-02-24T05:47:41.882Z,56.31
2019-02-24T05:48:41.853Z,56.31
2019-02-24T05:49:41.853Z,56.20
2019-02-24T05:50:41.841Z,56.75
2019-02-24T05:51:41.821Z,56.20
2019-02-24T05:52:41.806Z,56.41
2019-02-24T05:53:41.802Z,55.89
2019-02-24T05:54:41.784Z,55.48
2019-02-24T05:55:41.782Z,55.89
2019-02-24T05:56:41.772Z,56.23
2019-02-24T05:57:41.751Z,55.60
2019-02-24T05:58:41.749Z,56.86
2019-02-24T05:59:41.837Z,56.15
2019-02-24T06:00:41.720Z,56.88
2019-02-24T06:01:41.748Z,57.71
2019-02-24T06:02:41.700Z,57.22
2019-02-24T06:03:41.693Z,57.11
2019-02-24T06:04:41.898Z,56.80
2019-02-24T06:05:41.743Z,56.80
2019-02-24T06:06:41.672Z,57.32
2019-02-24T06:07:41.649Z,57.45
2019-02-24T06:08:41.643Z,57.76
2019-02-24T06:09:41.639Z,57.66
2019-02-24T06:10:41.655Z,57.76
2019-02-24T06:11:41.679Z,58.50
2019-02-24T06:12:41.608Z,58.18
2019-02-24T06:13:41.581Z,58.29
2019-02-24T06:14:41.569Z,58.42
2019-02-24T06:15:41.564Z,59.15
2019-02-24T06:16:41.550Z,58.83
2019-02-24T06:17:41.643Z,58.60
2019-02-24T06:18:41.526Z,59.46
2019-02-24T06:19:41.515Z,59.36
2019-02-24T06:20:41.509Z,59.36
2019-02-24T06:21:41.607Z,59.46
2019-02-24T06:22:41.482Z,59.57
2019-02-24T06:23:41.487Z,59.46
2019-02-24T06:24:41.469Z,59.57
2019-02-24T06:25:41.454Z,59.36
2019-02-24T06:26:41.435Z,60.16
2019-02-24T06:27:41.430Z,59.54
2019-02-24T06:28:41.418Z,59.64
2019-02-24T06:29:41.414Z,60.37
2019-02-24T06:30:41.398Z,59.43
2019-02-24T06:31:41.387Z,59.12
2019-02-24T06:32:41.368Z,59.20
2019-02-24T06:33:41.363Z,59.30
2019-02-24T06:34:41.352Z,59.20
2019-02-24T06:35:41.348Z,59.41
2019-02-24T06:36:41.330Z,58.36
2019-02-24T06:37:41.332Z,59.41
2019-02-24T06:38:41.308Z,58.89
2019-02-24T06:39:41.300Z,58.78
2019-02-24T06:40:41.284Z,58.78
2019-02-24T06:41:41.279Z,58.26
2019-02-24T06:42:41.272Z,58.23
2019-02-24T06:43:41.267Z,58.57
2019-02-24T06:44:41.324Z,57.64
2019-02-24T06:45:41.233Z,57.95
2019-02-24T06:46:41.235Z,57.84
2019-02-24T06:47:41.267Z,57.74
2019-02-24T06:48:41.193Z,57.84
2019-02-24T06:49:41.230Z,57.43
2019-02-24T06:50:41.186Z,58.57
2019-02-24T06:51:41.182Z,57.11
2019-02-24T06:52:41.228Z,57.01
2019-02-24T06:53:41.142Z,57.32
2019-02-24T06:54:41.183Z,57.95
2019-02-24T06:55:41.121Z,57.01
2019-02-24T06:56:41.110Z,57.19
2019-02-24T06:57:41.110Z,57.19
2019-02-24T06:58:41.094Z,56.36
2019-02-24T06:59:41.159Z,56.67
2019-02-24T07:00:41.250Z,56.98
2019-02-24T07:01:41.055Z,56.98
2019-02-24T07:02:41.070Z,56.88
2019-02-24T07:03:41.027Z,56.98
2019-02-24T07:04:41.031Z,57.40
2019-02-24T07:05:41.012Z,55.11
2019-02-24T07:06:40.999Z,56.36
2019-02-24T07:07:41.026Z,56.57
2019-02-24T07:08:40.973Z,56.78
2019-02-24T07:09:40.967Z,56.36
2019-02-24T07:10:41.024Z,56.67
2019-02-24T07:11:40.940Z,56.23
2019-02-24T07:12:40.927Z,56.67
2019-02-24T07:13:40.988Z,57.19
2019-02-24T07:14:40.908Z,57.89
2019-02-24T07:15:40.894Z,57.06
2019-02-24T07:16:40.885Z,56.33
2019-02-24T07:17:40.888Z,56.23
2019-02-24T07:18:40.867Z,56.54
2019-02-24T07:19:40.883Z,56.12
2019-02-24T07:20:40.850Z,55.58
2019-02-24T07:21:40.839Z,54.85
2019-02-24T07:22:40.820Z,55.89
2019-02-24T07:23:40.833Z,55.58
2019-02-24T07:24:40.799Z,56.51
2019-02-24T07:25:40.807Z,57.01
2019-02-24T07:26:40.781Z,57.14
2019-02-24T07:27:40.759Z,57.14
2019-02-24T07:28:40.756Z,56.59
2019-02-24T07:29:40.737Z,57.11
2019-02-24T07:30:40.729Z,56.49
2019-02-24T07:31:40.807Z,56.80
2019-02-24T07:32:40.725Z,56.70
2019-02-24T07:33:40.693Z,56.70
2019-02-24T07:34:40.706Z,56.36
2019-02-24T07:35:40.693Z,56.57
2019-02-24T07:36:40.662Z,55.73
2019-02-24T07:37:40.651Z,55.84
2019-02-24T07:38:40.638Z,54.90
2019-02-24T07:39:40.631Z,54.80
2019-02-24T07:40:40.617Z,55.01
2019-02-24T07:41:40.618Z,54.98
2019-02-24T07:42:40.601Z,54.36
2019-02-24T07:43:40.598Z,54.67
2019-02-24T07:44:40.573Z,54.98
2019-02-24T07:45:40.562Z,55.19
2019-02-24T07:46:40.557Z,54.67
2019-02-24T07:47:40.667Z,54.05
2019-02-24T07:48:40.526Z,54.05
2019-02-24T07:49:40.657Z,54.75
2019-02-24T07:50:40.507Z,54.23
2019-02-24T07:51:40.495Z,53.82
2019-02-24T07:52:40.486Z,54.02
2019-02-24T07:53:40.479Z,55.79
2019-02-24T07:54:40.467Z,55.27
2019-02-24T07:55:40.452Z,54.13
2019-02-24T07:56:40.436Z,54.65
2019-02-24T07:57:40.422Z,54.00
2019-02-24T07:58:40.417Z,54.73
2019-02-24T07:59:40.406Z,54.10
2019-02-24T08:00:40.392Z,54.10
2019-02-24T08:01:40.382Z,54.10
2019-02-24T08:02:40.392Z,55.76
2019-02-24T08:03:40.381Z,53.66
2019-02-24T08:04:40.348Z,52.72
2019-02-24T08:05:40.349Z,55.43
2019-02-24T08:06:40.327Z,54.16
2019-02-24T08:07:40.314Z,53.97
2019-02-24T08:08:40.305Z,53.33
2019-02-24T08:09:40.298Z,53.95
2019-02-24T08:10:40.297Z,52.08
2019-02-24T08:11:40.274Z,52.70
2019-02-24T08:12:40.260Z,53.54
2019-02-24T08:13:40.255Z,52.91
2019-02-24T08:14:40.240Z,52.89
2019-02-24T08:15:40.237Z,52.37
2019-02-24T08:16:40.264Z,52.27
2019-02-24T08:17:40.203Z,52.27
2019-02-24T08:18:49.042Z,52.78
2019-02-24T08:19:41.185Z,52.37
2019-02-24T08:20:40.178Z,51.85
2019-02-24T08:21:40.208Z,53.40
2019-02-24T08:22:40.162Z,51.85
2019-02-24T08:23:40.146Z,50.61
2019-02-24T08:24:40.125Z,50.48
2019-02-24T08:25:40.176Z,50.48
2019-02-24T08:26:40.107Z,50.89
2019-02-24T08:27:40.101Z,52.97
2019-02-24T08:28:40.097Z,50.68
2019-02-24T08:29:40.092Z,50.27
2019-02-24T08:30:41.852Z,50.56
2019-02-24T08:31:40.059Z,50.45
2019-02-24T08:32:40.036Z,51.70
2019-02-24T08:33:40.029Z,50.66
2019-02-24T08:34:40.030Z,49.62
2019-02-24T08:35:40.005Z,49.10
2019-02-24T08:36:40.001Z,48.90
2019-02-24T08:37:39.982Z,48.88
2019-02-24T08:38:40.503Z,49.91
2019-02-24T08:39:39.962Z,48.77
2019-02-24T08:40:39.997Z,49.29
2019-02-24T08:41:39.940Z,48.46
2019-02-24T08:42:39.935Z,49.06
2019-02-24T08:43:39.914Z,48.75
2019-02-24T08:44:39.909Z,47.92
2019-02-24T08:45:39.956Z,48.13
2019-02-24T08:46:39.881Z,47.59
2019-02-24T08:47:39.883Z,48.62
2019-02-24T08:48:39.862Z,48.52
2019-02-24T08:49:39.855Z,47.49
2019-02-24T08:50:39.842Z,46.66
2019-02-24T08:51:39.837Z,46.66
2019-02-24T08:52:39.824Z,46.55
2019-02-24T08:53:39.809Z,46.64
2019-02-24T08:54:39.802Z,45.30
2019-02-24T08:55:39.785Z,46.74
2019-02-24T08:56:39.772Z,45.70
2019-02-24T08:57:39.765Z,44.26
2019-02-24T08:58:39.754Z,44.98
2019-02-24T08:59:39.739Z,44.75
2019-02-24T09:00:39.736Z,45.37
2019-02-24T09:01:39.716Z,45.09
2019-02-24T09:02:39.724Z,43.20
2019-02-24T09:03:39.700Z,44.65
2019-02-24T09:04:39.685Z,44.65
2019-02-24T09:05:39.685Z,43.72
2019-02-24T09:06:39.670Z,44.65
2019-02-24T09:07:39.656Z,43.91
2019-02-24T09:08:39.661Z,45.17
2019-02-24T09:09:39.633Z,41.14
2019-02-24T09:10:39.618Z,43.08
2019-02-24T09:11:39.613Z,42.46
2019-02-24T09:12:39.596Z,43.48
2019-02-24T09:13:39.590Z,45.15
2019-02-24T09:14:39.587Z,42.98
2019-02-24T09:15:39.589Z,42.65
2019-02-24T09:16:39.553Z,44.09
2019-02-24T09:17:39.543Z,42.34
2019-02-24T09:18:39.534Z,41.82
2019-02-24T09:19:39.582Z,43.24
2019-02-24T09:20:39.524Z,43.04
2019-02-24T09:21:39.506Z,42.52
2019-02-24T09:22:39.493Z,43.35
2019-02-24T09:23:39.500Z,42.11
2019-02-24T09:24:39.471Z,43.15
2019-02-24T09:25:39.458Z,43.12
2019-02-24T09:26:39.457Z,43.95
2019-02-24T09:27:39.443Z,42.51
2019-02-24T09:28:39.444Z,41.58
2019-02-24T09:29:39.429Z,42.92
2019-02-24T09:30:39.406Z,41.25
2019-02-24T09:31:39.390Z,42.59
2019-02-24T09:32:39.396Z,41.66
2019-02-24T09:33:39.395Z,41.76
2019-02-24T09:34:39.362Z,39.70
2019-02-24T09:35:39.386Z,41.35
2019-02-24T09:36:39.344Z,41.04
2019-02-24T09:37:39.342Z,40.10
2019-02-24T09:38:39.317Z,41.66
2019-02-24T09:39:39.311Z,41.64
2019-02-24T09:40:39.295Z,41.54
2019-02-24T09:41:39.283Z,42.37
2019-02-24T09:42:39.278Z,42.77
2019-02-24T09:43:39.310Z,39.68
2019-02-24T09:44:39.256Z,41.33
2019-02-24T09:45:39.248Z,39.89
2019-02-24T09:46:39.228Z,40.20
2019-02-24T09:47:46.410Z,41.32
2019-02-24T09:48:40.214Z,39.87
2019-02-24T09:49:39.201Z,40.18
2019-02-24T09:50:39.240Z,39.56
2019-02-24T09:51:39.182Z,39.66
2019-02-24T09:52:39.171Z,39.05
2019-02-24T09:53:39.170Z,39.56
2019-02-24T09:54:39.160Z,41.11
2019-02-24T09:55:39.143Z,38.72
2019-02-24T09:56:39.178Z,39.55
2019-02-24T09:57:39.155Z,39.13
2019-02-24T09:58:39.193Z,38.10
2019-02-24T09:59:39.099Z,37.17
2019-02-24T10:00:39.090Z,34.91
2019-02-24T10:01:39.070Z,35.51
2019-02-24T10:02:39.063Z,36.85
2019-02-24T10:03:39.044Z,38.50
2019-02-24T10:04:39.038Z,37.55
2019-02-24T10:05:39.148Z,36.85
2019-02-24T10:06:39.027Z,37.14
2019-02-24T10:07:39.015Z,38.70
2019-02-24T10:08:38.992Z,36.13
2019-02-24T10:09:39.125Z,36.01
2019-02-24T10:10:38.987Z,36.52
2019-02-24T10:11:38.960Z,34.67
2019-02-24T10:12:38.957Z,36.51
2019-02-24T10:13:38.931Z,35.27
2019-02-24T10:14:38.929Z,35.17
2019-02-24T10:15:38.916Z,35.47
2019-02-24T10:16:38.910Z,36.19
2019-02-24T10:17:38.893Z,38.67
2019-02-24T10:18:38.885Z,36.49
2019-02-24T10:19:38.878Z,36.28
2019-02-24T10:20:38.854Z,34.94
2019-02-24T10:21:38.858Z,35.05
2019-02-24T10:22:38.839Z,34.52
2019-02-24T10:23:38.821Z,36.18
2019-02-24T10:24:38.821Z,33.59
2019-02-24T10:25:38.803Z,33.49
2019-02-24T10:26:38.797Z,34.21
2019-02-24T10:27:38.783Z,35.13
2019-02-24T10:28:38.816Z,34.32
2019-02-24T10:29:38.804Z,34.21
2019-02-24T10:30:38.758Z,34.52
2019-02-24T10:31:38.752Z,34.50
2019-02-24T10:32:38.725Z,34.21
2019-02-24T10:33:38.729Z,34.30
2019-02-24T10:34:38.889Z,34.71
2019-02-24T10:35:38.729Z,34.71
2019-02-24T10:36:38.694Z,34.91
2019-02-24T10:37:38.835Z,34.18
2019-02-24T10:38:38.656Z,32.25
2019-02-24T10:39:38.651Z,32.44
2019-02-24T10:40:38.701Z,33.89
2019-02-24T10:41:38.644Z,33.25
2019-02-24T10:42:38.610Z,33.56
2019-02-24T10:52:40.506Z,30.16
2019-02-24T10:52:40.826Z,32.44
2019-02-24T10:52:40.836Z,31.31
2019-02-24T10:53:38.498Z,30.37
2019-02-24T10:54:38.617Z,30.48
2019-02-24T10:55:38.505Z,32.01
2019-02-24T10:56:38.484Z,30.88
2019-02-24T10:57:38.456Z,31.60
2019-02-24T10:58:38.442Z,32.52
2019-02-24T10:59:38.428Z,32.52
2019-02-24T11:00:38.418Z,31.39
2019-02-24T11:01:38.456Z,31.09
2019-02-24T11:02:38.418Z,30.78
2019-02-24T11:03:38.383Z,30.26
2019-02-24T11:04:38.387Z,30.16
2019-02-24T11:05:38.397Z,30.67
2019-02-24T11:06:38.374Z,28.83
2019-02-24T11:07:38.338Z,30.45
2019-02-24T11:08:38.344Z,30.25
2019-02-24T11:09:38.407Z,29.84
2019-02-24T11:10:38.326Z,29.63
2019-02-24T11:11:38.294Z,29.74
2019-02-24T11:12:38.334Z,29.94
2019-02-24T11:13:38.275Z,29.02
2019-02-24T11:14:38.266Z,28.71
2019-02-24T11:15:38.253Z,28.80
2019-02-24T11:16:38.365Z,28.19
2019-02-24T11:17:38.225Z,28.49
2019-02-24T11:18:38.234Z,28.28
2019-02-24T11:19:38.257Z,28.19
2019-02-24T11:20:38.219Z,28.17
2019-02-24T11:21:38.330Z,29.10
2019-02-24T11:22:38.196Z,29.10
2019-02-24T11:23:38.280Z,29.51
2019-02-24T11:24:38.155Z,28.38
2019-02-24T11:25:38.208Z,30.02
2019-02-24T11:26:38.138Z,28.38
2019-02-24T11:27:38.140Z,28.17
2019-02-24T11:28:38.199Z,28.99
2019-02-24T11:29:38.094Z,28.07
2019-02-24T11:30:38.088Z,28.26
2019-02-24T11:31:38.655Z,28.26
2019-02-24T11:32:38.135Z,27.34
2019-02-24T11:33:38.051Z,29.39
2019-02-24T11:34:38.063Z,29.80
2019-02-24T11:35:38.088Z,28.16
2019-02-24T11:36:38.036Z,28.36
2019-02-24T11:37:38.038Z,26.52
2019-02-24T11:38:38.000Z,26.52
2019-02-24T11:39:37.987Z,27.75
2019-02-24T11:40:37.989Z,27.44
2019-02-24T11:41:37.970Z,28.57
2019-02-24T11:42:37.956Z,27.74
2019-02-24T11:43:37.944Z,28.14
2019-02-24T11:44:37.934Z,26.92
2019-02-24T11:45:37.925Z,26.83
2019-02-24T11:46:37.928Z,26.72
2019-02-24T11:47:37.903Z,26.11
2019-02-24T11:48:37.886Z,24.77
2019-02-24T11:49:37.891Z,24.67
2019-02-24T11:50:37.869Z,26.00
2019-02-24T11:51:37.856Z,26.20
2019-02-24T11:52:37.840Z,26.50
2019-02-24T11:53:37.840Z,27.62
2019-02-24T11:54:37.848Z,26.09
2019-02-24T11:55:37.814Z,26.19
2019-02-24T11:56:37.796Z,26.19
2019-02-24T11:57:37.974Z,23.43
2019-02-24T11:58:37.783Z,25.17
2019-02-24T11:59:37.803Z,25.06
2019-02-24T12:00:37.762Z,24.04
2019-02-24T12:01:37.747Z,23.31
2019-02-24T12:02:38.521Z,23.93
2019-02-24T12:03:37.719Z,23.93
2019-02-24T12:04:37.710Z,22.19
2019-02-24T12:05:37.713Z,23.21
2019-02-24T12:06:37.686Z,23.11
2019-02-24T12:07:37.688Z,23.40
2019-02-24T12:08:37.709Z,24.02
2019-02-24T12:09:37.654Z,23.40
2019-02-24T12:10:37.659Z,23.61
2019-02-24T12:11:37.736Z,23.10
2019-02-24T12:12:37.627Z,22.90
2019-02-24T12:13:37.621Z,21.67
2019-02-24T12:14:37.609Z,21.26
2019-02-24T12:15:37.595Z,21.05
2019-02-24T12:16:37.577Z,21.25
2019-02-24T12:17:37.577Z,22.07
2019-02-24T12:18:37.554Z,21.96
2019-02-24T12:19:37.595Z,22.27
2019-02-24T12:20:37.547Z,21.35
2019-02-24T12:21:37.523Z,22.58
2019-02-24T12:22:37.517Z,22.07
2019-02-24T12:23:37.500Z,21.76
2019-02-24T12:24:37.525Z,21.96
2019-02-24T12:25:37.484Z,22.17
2019-02-24T12:26:37.469Z,24.82
2019-02-24T12:27:37.464Z,25.34
2019-02-24T12:28:37.453Z,23.90
2019-02-24T12:29:37.461Z,23.39
2019-02-24T12:30:37.445Z,22.87
2019-02-24T12:31:37.427Z,22.26
2019-02-24T12:32:37.413Z,21.04
2019-02-24T12:33:37.397Z,21.64
2019-02-24T12:34:37.391Z,23.38
2019-02-24T12:35:37.372Z,22.16
2019-02-24T12:36:37.388Z,21.54
2019-02-24T12:37:37.361Z,20.83
2019-02-24T12:38:37.344Z,19.20
2019-02-24T12:39:37.333Z,19.79
2019-02-24T12:40:37.338Z,20.62
2019-02-24T12:41:37.312Z,19.50
2019-02-24T12:42:37.309Z,19.70
2019-02-24T12:43:37.288Z,19.70
2019-02-24T12:44:37.278Z,19.49
2019-02-24T12:45:37.266Z,20.72
2019-02-24T12:46:37.474Z,19.59
2019-02-24T12:47:37.236Z,20.92
2019-02-24T12:48:37.348Z,21.33
2019-02-24T12:49:37.219Z,21.53
2019-02-24T12:50:37.201Z,22.85
2019-02-24T12:51:37.195Z,20.82
2019-02-24T12:52:37.182Z,21.23
2019-02-24T12:53:37.174Z,19.49
2019-02-24T12:54:37.158Z,20.82
2019-02-24T12:55:37.151Z,21.74
2019-02-24T12:56:37.150Z,22.96
2019-02-24T12:57:37.133Z,22.54
2019-02-24T12:58:37.136Z,24.48
2019-02-24T12:59:37.107Z,23.77